createdAt,value
2023-01-30T00:00:22.158Z,10.65
2023-01-30T00:03:07.495Z,10.80
2023-01-30T00:05:53.567Z,10.40
2023-01-30T00:08:38.959Z,11.65
2023-01-30T00:11:24.192Z,10.57
2023-01-30T00:14:09.529Z,10.60
2023-01-30T00:16:54.715Z,11.43
2023-01-30T00:19:40.003Z,11.20
2023-01-30T00:22:25.618Z,11.38
2023-01-30T00:25:10.871Z,11.23
2023-01-30T00:27:58.306Z,11.50
2023-01-30T00:30:43.883Z,11.85
2023-01-30T00:33:29.703Z,10.52
2023-01-30T00:36:14.914Z,11.45
2023-01-30T00:39:00.322Z,11.63
2023-01-30T00:42:04.130Z,10.85
2023-01-30T00:45:09.140Z,11.20
2023-01-30T00:47:54.200Z,12.43
2023-01-30T00:50:42.520Z,11.32
2023-01-30T00:53:30.534Z,11.23
2023-01-30T00:56:15.928Z,11.43
2023-01-30T00:59:01.171Z,12.55
2023-01-30T01:01:47.112Z,12.90
2023-01-30T01:04:43.063Z,12.55
2023-01-30T01:07:29.654Z,12.82
2023-01-30T01:10:16.570Z,13.02
2023-01-30T01:13:02.771Z,11.73
2023-01-30T01:15:50.377Z,12.48
2023-01-30T01:18:36.944Z,13.40
2023-01-30T01:21:22.773Z,12.63
2023-01-30T01:24:13.414Z,12.13
2023-01-30T01:26:58.999Z,12.90
2023-01-30T01:29:44.349Z,13.38
2023-01-30T01:32:29.783Z,13.82
2023-01-30T01:35:15.552Z,13.18
2023-01-30T01:38:01.129Z,13.07
2023-01-30T01:41:02.060Z,12.57
2023-01-30T01:44:07.641Z,13.18
2023-01-30T01:46:58.654Z,14.05
2023-01-30T01:49:44.325Z,13.35
2023-01-30T01:52:29.621Z,12.57
2023-01-30T01:55:17.495Z,14.85
2023-01-30T01:58:10.875Z,14.25
2023-01-30T02:00:59.417Z,14.05
2023-01-30T02:03:49.336Z,12.85
2023-01-30T02:06:37.200Z,14.07
2023-01-30T02:09:22.860Z,14.82
2023-01-30T02:12:10.931Z,14.88
2023-01-30T02:14:58.984Z,15.52
2023-01-30T02:17:44.394Z,16.25
2023-01-30T02:20:41.836Z,15.70
2023-01-30T02:23:46.046Z,14.57
2023-01-30T02:26:52.169Z,15.60
2023-01-30T02:30:21.935Z,14.80
2023-01-30T02:33:19.072Z,15.90
2023-01-30T02:36:16.381Z,15.88
2023-01-30T02:39:10.429Z,15.70
2023-01-30T02:42:22.371Z,15.68
2023-01-30T02:45:23.918Z,15.50
2023-01-30T02:48:14.948Z,16.92
2023-01-30T02:51:07.741Z,16.15
2023-01-30T02:53:54.324Z,15.90
2023-01-30T02:56:52.391Z,16.20
2023-01-30T02:59:47.715Z,15.27
2023-01-30T03:03:07.280Z,16.48
2023-01-30T03:06:17.022Z,16.00
2023-01-30T03:09:25.406Z,16.92
2023-01-30T03:12:35.618Z,15.65
2023-01-30T03:15:38.708Z,16.13
2023-01-30T03:18:24.552Z,16.45
2023-01-30T03:21:12.333Z,16.23
2023-01-30T03:23:57.904Z,17.15
2023-01-30T03:26:56.036Z,16.25
2023-01-30T03:29:41.629Z,15.77
2023-01-30T03:32:26.970Z,15.05
2023-01-30T03:35:12.731Z,16.35
2023-01-30T03:37:58.368Z,15.93
2023-01-30T03:40:44.069Z,15.93
2023-01-30T03:43:29.322Z,16.15
2023-01-30T03:46:14.870Z,16.95
2023-01-30T03:49:00.259Z,15.52
2023-01-30T03:51:46.108Z,16.40
2023-01-30T03:54:32.455Z,14.73
2023-01-30T03:57:17.836Z,15.55
2023-01-30T04:00:04.744Z,15.93
2023-01-30T04:03:01.634Z,16.25
2023-01-30T04:05:47.078Z,16.15
2023-01-30T04:08:32.621Z,15.80
2023-01-30T04:11:18.036Z,15.20
2023-01-30T04:14:03.576Z,15.95
2023-01-30T04:16:49.197Z,15.77
2023-01-30T04:19:53.248Z,16.25
2023-01-30T04:22:38.638Z,15.75
2023-01-30T04:25:23.975Z,16.25
2023-01-30T04:28:09.583Z,14.20
2023-01-30T04:30:57.075Z,15.65
2023-01-30T04:34:03.029Z,15.02
2023-01-30T04:36:48.973Z,13.75
2023-01-30T04:39:34.125Z,15.02
2023-01-30T04:42:19.601Z,14.73
2023-01-30T04:45:24.702Z,15.43
2023-01-30T04:48:10.882Z,16.50
2023-01-30T04:50:58.698Z,15.68
2023-01-30T04:53:44.481Z,14.60
2023-01-30T04:56:30.135Z,14.70
2023-01-30T04:59:16.039Z,14.40
2023-01-30T05:02:03.296Z,14.93
2023-01-30T05:04:50.227Z,15.50
2023-01-30T05:07:35.651Z,15.13
2023-01-30T05:10:21.258Z,16.00
2023-01-30T05:13:07.401Z,16.38
2023-01-30T05:15:52.526Z,15.95
2023-01-30T05:18:37.748Z,16.45
2023-01-30T05:21:26.157Z,17.17
2023-01-30T05:24:11.340Z,16.35
2023-01-30T05:26:56.779Z,15.95
2023-01-30T05:29:42.081Z,15.55
2023-01-30T05:32:30.321Z,16.42
2023-01-30T05:35:15.946Z,17.52
2023-01-30T05:38:02.159Z,16.48
2023-01-30T05:40:47.510Z,17.23
2023-01-30T05:43:34.201Z,16.67
2023-01-30T05:46:19.952Z,17.05
2023-01-30T05:49:05.254Z,17.42
2023-01-30T05:51:51.562Z,15.70
2023-01-30T05:54:37.255Z,16.65
2023-01-30T05:57:22.218Z,16.60
2023-01-30T06:00:08.359Z,16.42
2023-01-30T06:02:58.229Z,15.45
2023-01-30T06:05:43.397Z,17.73
2023-01-30T06:08:28.940Z,16.17
2023-01-30T06:11:16.679Z,16.10
2023-01-30T06:14:01.810Z,16.00
2023-01-30T06:16:47.191Z,16.23
2023-01-30T06:19:32.497Z,15.07
2023-01-30T06:22:17.936Z,15.13
2023-01-30T06:25:03.737Z,16.02
2023-01-30T06:27:49.058Z,16.30
2023-01-30T06:30:34.537Z,17.58
2023-01-30T06:33:20.576Z,16.52
2023-01-30T06:36:06.357Z,17.15
2023-01-30T06:38:51.874Z,15.15
2023-01-30T06:41:36.876Z,15.43
2023-01-30T06:44:22.318Z,14.95
2023-01-30T06:47:07.363Z,15.55
2023-01-30T06:49:52.460Z,15.95
2023-01-30T06:52:42.053Z,14.15
2023-01-30T06:55:28.391Z,14.35
2023-01-30T06:58:14.802Z,14.23
2023-01-30T07:01:00.200Z,13.50
2023-01-30T07:03:45.658Z,13.65
2023-01-30T07:06:31.179Z,13.93
2023-01-30T07:09:16.359Z,12.82
2023-01-30T07:12:01.608Z,12.82
2023-01-30T07:14:47.130Z,12.43
2023-01-30T07:17:32.892Z,12.57
2023-01-30T07:20:18.174Z,11.55
2023-01-30T07:23:03.702Z,11.25
2023-01-30T07:25:49.294Z,11.70
2023-01-30T07:28:34.623Z,11.40
2023-01-30T07:31:19.935Z,11.30
2023-01-30T07:34:05.258Z,11.32
2023-01-30T07:36:50.900Z,9.73
2023-01-30T07:39:36.306Z,10.27
2023-01-30T07:42:21.332Z,9.55
2023-01-30T07:45:07.376Z,9.32
2023-01-30T07:47:53.729Z,8.95
2023-01-30T07:50:39.522Z,8.45
2023-01-30T07:53:24.928Z,8.25
2023-01-30T07:56:11.483Z,8.68
2023-01-30T07:58:57.112Z,7.40
2023-01-30T08:01:42.593Z,7.43
2023-01-30T08:04:28.087Z,7.47
2023-01-30T08:07:13.488Z,7.07
2023-01-30T08:09:58.678Z,7.63
2023-01-30T08:12:43.877Z,8.25
2023-01-30T08:15:31.466Z,7.65
2023-01-30T08:18:16.612Z,7.15
2023-01-30T08:21:05.676Z,7.00
2023-01-30T08:23:50.916Z,7.18
2023-01-30T08:26:36.845Z,7.47
2023-01-30T08:29:22.188Z,6.75
2023-01-30T08:32:08.010Z,6.97
2023-01-30T08:34:53.367Z,5.63
2023-01-30T08:37:40.488Z,5.97
2023-01-30T08:40:25.907Z,8.65
2023-01-30T08:43:11.116Z,6.60
2023-01-30T08:45:56.622Z,6.15
2023-01-30T08:48:49.596Z,4.53
2023-01-30T08:51:36.876Z,5.47
2023-01-30T08:54:22.250Z,5.55
2023-01-30T08:57:07.637Z,5.43
2023-01-30T08:59:52.651Z,5.03
2023-01-30T09:02:38.643Z,5.43
2023-01-30T09:05:25.107Z,4.60
2023-01-30T09:08:10.575Z,4.78
2023-01-30T09:11:03.899Z,4.90
2023-01-30T09:13:49.862Z,4.53
2023-01-30T09:16:35.296Z,4.30
2023-01-30T09:19:22.633Z,4.15
2023-01-30T09:22:08.418Z,4.15
2023-01-30T09:24:54.162Z,3.85
2023-01-30T09:27:39.727Z,4.15
2023-01-30T09:30:24.961Z,4.20
2023-01-30T09:33:10.515Z,3.78
2023-01-30T09:35:55.802Z,3.70
2023-01-30T09:38:41.053Z,4.07
2023-01-30T09:41:29.675Z,3.13
2023-01-30T09:44:32.912Z,3.65
2023-01-30T09:47:39.311Z,3.20
2023-01-30T09:50:27.738Z,3.28
2023-01-30T09:53:31.329Z,3.10
2023-01-30T09:56:17.164Z,3.13
2023-01-30T09:59:04.619Z,2.65
2023-01-30T10:02:27.336Z,2.47
2023-01-30T10:05:13.198Z,3.22
2023-01-30T10:08:20.301Z,2.08
2023-01-30T10:11:10.966Z,3.08
2023-01-30T10:14:15.186Z,2.45
2023-01-30T10:17:16.901Z,2.70
2023-01-30T10:20:34.140Z,2.53
2023-01-30T10:23:37.582Z,2.33
2023-01-30T10:26:26.404Z,2.40
2023-01-30T10:29:18.332Z,2.10
2023-01-30T10:32:30.984Z,2.20
2023-01-30T10:35:32.019Z,2.83
2023-01-30T10:38:27.541Z,2.72
2023-01-30T10:41:34.123Z,2.75
2023-01-30T10:44:22.772Z,3.50
2023-01-30T10:47:47.091Z,3.10
2023-01-30T10:50:56.950Z,3.00
2023-01-30T10:53:55.528Z,2.30
2023-01-30T10:56:51.055Z,3.50
2023-01-30T11:00:02.622Z,3.50
2023-01-30T11:03:02.907Z,3.28
2023-01-30T11:05:54.302Z,2.70
2023-01-30T11:08:40.001Z,2.88
2023-01-30T11:11:48.000Z,3.15
2023-01-30T11:14:59.579Z,2.90
2023-01-30T11:17:45.424Z,3.42
2023-01-30T11:20:30.880Z,3.38
2023-01-30T11:23:26.286Z,3.15
2023-01-30T11:26:21.738Z,4.00
2023-01-30T11:29:27.624Z,3.80
2023-01-30T11:32:19.459Z,3.92
2023-01-30T11:35:08.767Z,3.42
2023-01-30T11:38:12.439Z,3.20
2023-01-30T11:41:18.780Z,4.00
2023-01-30T11:44:05.744Z,3.20
2023-01-30T11:46:51.117Z,3.05
2023-01-30T11:49:47.224Z,3.55
2023-01-30T11:52:39.003Z,3.63
2023-01-30T11:55:24.777Z,2.65
2023-01-30T11:58:10.531Z,4.30
2023-01-30T12:00:55.993Z,3.20
2023-01-30T12:03:53.484Z,4.20
2023-01-30T12:06:42.206Z,3.50
2023-01-30T12:09:45.587Z,3.08
2023-01-30T12:12:35.065Z,2.55
2023-01-30T12:15:27.178Z,2.72
2023-01-30T12:18:57.166Z,2.55
2023-01-30T12:22:36.504Z,3.42
2023-01-30T12:25:35.717Z,3.25
2023-01-30T12:28:54.992Z,3.47
2023-01-30T12:31:47.777Z,3.55
2023-01-30T12:34:33.272Z,4.97
2023-01-30T12:37:33.534Z,3.58
2023-01-30T12:40:22.132Z,3.50
2023-01-30T12:43:15.707Z,3.35
2023-01-30T12:46:06.906Z,3.13
2023-01-30T12:49:10.393Z,3.00
2023-01-30T12:52:12.742Z,3.35
2023-01-30T12:55:37.944Z,4.45
2023-01-30T12:58:38.799Z,4.05
2023-01-30T13:01:45.681Z,3.30
2023-01-30T13:05:04.342Z,3.65
2023-01-30T13:08:27.871Z,3.00
2023-01-30T13:11:31.069Z,2.95
2023-01-30T13:14:26.261Z,3.05
2023-01-30T13:17:23.761Z,3.15
2023-01-30T13:20:09.129Z,2.90
2023-01-30T13:23:13.609Z,2.65
2023-01-30T13:26:06.291Z,3.10
2023-01-30T13:28:57.833Z,2.17
2023-01-30T13:31:53.780Z,2.55
2023-01-30T13:34:44.727Z,2.15
2023-01-30T13:37:32.434Z,2.75
2023-01-30T13:40:31.724Z,3.38
2023-01-30T13:43:37.375Z,3.05
2023-01-30T13:46:27.514Z,3.03
2023-01-30T13:49:24.817Z,2.33
2023-01-30T13:52:33.912Z,3.10
2023-01-30T13:55:32.166Z,3.33
2023-01-30T13:58:30.348Z,3.35
2023-01-30T14:01:15.900Z,3.10
2023-01-30T14:04:36.661Z,3.30
2023-01-30T14:07:32.152Z,3.72
2023-01-30T14:10:20.793Z,3.38
2023-01-30T14:13:06.467Z,3.20
2023-01-30T14:16:00.631Z,2.83
2023-01-30T14:18:46.434Z,2.88
2023-01-30T14:21:31.741Z,3.08
2023-01-30T14:24:24.928Z,2.85
2023-01-30T14:27:27.283Z,3.00
2023-01-30T14:30:39.022Z,1.88
2023-01-30T14:33:24.488Z,1.60
2023-01-30T14:36:16.116Z,1.17
2023-01-30T14:39:39.644Z,1.10
2023-01-30T14:42:27.822Z,0.70
2023-01-30T14:45:17.234Z,0.90
2023-01-30T14:48:28.163Z,0.80
2023-01-30T14:51:53.456Z,1.25
2023-01-30T14:54:48.359Z,0.90
2023-01-30T14:57:34.746Z,1.52
2023-01-30T15:00:24.604Z,1.00
2023-01-30T15:03:20.194Z,1.42
2023-01-30T15:06:06.893Z,2.35
2023-01-30T15:08:52.526Z,1.60
2023-01-30T15:11:38.587Z,1.45
2023-01-30T15:14:55.269Z,1.80
2023-01-30T15:18:10.309Z,2.17
2023-01-30T15:21:37.283Z,1.83
2023-01-30T15:24:40.985Z,2.35
2023-01-30T15:27:45.163Z,2.30
2023-01-30T15:31:01.025Z,2.13
2023-01-30T15:33:52.021Z,1.50
2023-01-30T15:36:38.780Z,1.50
2023-01-30T15:39:26.307Z,2.63
2023-01-30T15:42:15.104Z,1.63
2023-01-30T15:45:11.741Z,2.00
2023-01-30T15:48:06.543Z,2.00
2023-01-30T15:50:55.163Z,1.73
2023-01-30T15:53:44.102Z,2.25
2023-01-30T15:56:31.970Z,2.10
2023-01-30T15:59:39.873Z,2.20
2023-01-30T16:02:35.938Z,2.35
2023-01-30T16:05:25.358Z,2.40
2023-01-30T16:08:19.989Z,1.85
2023-01-30T16:11:05.185Z,2.30
2023-01-30T16:13:50.808Z,2.97
2023-01-30T16:16:37.275Z,2.45
2023-01-30T16:19:29.339Z,2.85
2023-01-30T16:22:20.517Z,2.72
2023-01-30T16:25:06.134Z,2.45
2023-01-30T16:27:53.622Z,2.00
2023-01-30T16:30:42.558Z,2.83
2023-01-30T16:33:36.338Z,3.40
2023-01-30T16:36:22.085Z,3.80
2023-01-30T16:39:34.995Z,3.08
2023-01-30T16:42:28.796Z,3.30
2023-01-30T16:45:14.125Z,3.25
2023-01-30T16:48:30.622Z,3.08
2023-01-30T16:51:22.233Z,3.10
2023-01-30T16:54:19.040Z,2.97
2023-01-30T16:57:04.696Z,3.70
2023-01-30T16:59:50.414Z,3.42
2023-01-30T17:02:39.580Z,2.58
2023-01-30T17:08:46.780Z,2.97
2023-01-30T17:11:37.835Z,3.40
2023-01-30T17:14:30.559Z,2.70
2023-01-30T17:17:16.484Z,3.22
2023-01-30T17:20:01.750Z,3.72
2023-01-30T17:22:49.953Z,3.55
2023-01-30T17:25:47.979Z,3.65
2023-01-30T17:28:33.414Z,2.83
2023-01-30T17:31:20.872Z,2.70
2023-01-30T17:34:05.937Z,3.20
2023-01-30T17:36:53.193Z,3.55
2023-01-30T17:39:38.576Z,3.47
2023-01-30T17:42:24.324Z,2.70
2023-01-30T17:45:10.537Z,3.20
2023-01-30T17:47:56.144Z,3.75
2023-01-30T17:50:41.880Z,3.58
2023-01-30T17:53:27.230Z,3.65
2023-01-30T17:56:19.141Z,3.40
2023-01-30T17:59:22.988Z,3.95
2023-01-30T18:02:09.993Z,3.40
2023-01-30T18:04:55.494Z,3.70
2023-01-30T18:07:41.599Z,4.43
2023-01-30T18:10:27.101Z,3.92
2023-01-30T18:13:15.204Z,5.53
2023-01-30T18:16:00.707Z,8.52
2023-01-30T18:18:45.903Z,5.10
2023-01-30T18:21:32.977Z,4.30
2023-01-30T18:24:18.823Z,4.88
2023-01-30T18:27:04.067Z,4.05
2023-01-30T18:29:49.393Z,4.05
2023-01-30T18:32:37.737Z,4.55
2023-01-30T18:35:23.410Z,4.77
2023-01-30T18:38:08.536Z,4.95
2023-01-30T18:40:53.889Z,5.68
2023-01-30T18:43:39.341Z,5.15
2023-01-30T18:46:26.196Z,5.07
2023-01-30T18:49:11.552Z,4.18
2023-01-30T18:51:56.987Z,4.15
2023-01-30T18:54:42.174Z,4.65
2023-01-30T18:57:27.982Z,4.80
2023-01-30T19:00:15.304Z,5.65
2023-01-30T19:07:42.835Z,4.40
2023-01-30T19:10:28.400Z,5.80
2023-01-30T19:13:32.572Z,4.20
2023-01-30T19:16:23.479Z,5.00
2023-01-30T19:19:10.047Z,5.00
2023-01-30T19:21:55.611Z,4.97
2023-01-30T19:24:45.805Z,4.85
2023-01-30T19:27:31.050Z,4.45
2023-01-30T19:30:16.628Z,5.70
2023-01-30T19:33:02.260Z,5.13
2023-01-30T19:35:48.987Z,5.78
2023-01-30T19:38:34.437Z,4.80
2023-01-30T19:41:22.358Z,4.50
2023-01-30T19:44:08.934Z,4.43
2023-01-30T19:46:55.849Z,5.80
2023-01-30T19:49:42.225Z,4.32
2023-01-30T19:52:27.424Z,5.88
2023-01-30T19:55:12.681Z,4.95
2023-01-30T19:57:57.896Z,5.70
2023-01-30T20:00:43.285Z,5.78
2023-01-30T20:03:30.094Z,5.22
2023-01-30T20:06:23.792Z,4.82
2023-01-30T20:09:11.945Z,5.05
2023-01-30T20:11:57.046Z,6.40
2023-01-30T20:14:42.656Z,5.72
2023-01-30T20:17:28.191Z,4.93
2023-01-30T20:20:13.551Z,4.93
2023-01-30T20:22:59.720Z,5.22
2023-01-30T20:25:46.491Z,4.97
2023-01-30T20:28:32.945Z,4.72
2023-01-30T20:31:21.469Z,5.25
2023-01-30T20:34:11.347Z,4.20
2023-01-30T20:36:57.497Z,5.40
2023-01-30T20:39:47.670Z,4.70
2023-01-30T20:42:33.665Z,4.95
2023-01-30T20:45:25.273Z,4.05
2023-01-30T20:48:10.474Z,4.32
2023-01-30T20:50:55.900Z,5.28
2023-01-30T20:53:51.285Z,3.33
2023-01-30T20:56:45.633Z,4.22
2023-01-30T20:59:33.400Z,3.33
2023-01-30T21:02:18.540Z,4.30
2023-01-30T21:05:04.072Z,4.07
2023-01-30T21:07:49.459Z,3.35
2023-01-30T21:10:35.904Z,4.55
2023-01-30T21:13:22.170Z,3.53
2023-01-30T21:16:11.817Z,3.75
2023-01-30T21:19:01.365Z,3.92
2023-01-30T21:21:54.918Z,4.03
2023-01-30T21:24:40.355Z,3.40
2023-01-30T21:27:25.596Z,5.00
2023-01-30T21:30:11.542Z,4.38
2023-01-30T21:32:57.821Z,3.60
2023-01-30T21:35:43.329Z,3.55
2023-01-30T21:38:47.722Z,4.18
2023-01-30T21:41:56.198Z,3.67
2023-01-30T21:44:41.570Z,3.42
2023-01-30T21:47:27.060Z,3.00
2023-01-30T21:50:12.409Z,3.80
2023-01-30T21:52:57.768Z,3.20
2023-01-30T21:55:42.981Z,3.28
2023-01-30T21:58:31.443Z,3.13
2023-01-30T22:01:18.244Z,4.22
2023-01-30T22:04:06.371Z,3.45
2023-01-30T22:06:51.803Z,2.97
2023-01-30T22:09:37.440Z,3.05
2023-01-30T22:12:23.455Z,3.08
2023-01-30T22:15:09.573Z,2.95
2023-01-30T22:17:55.121Z,3.13
2023-01-30T22:20:42.853Z,2.65
2023-01-30T22:23:36.405Z,5.15
2023-01-30T22:26:24.065Z,4.03
2023-01-30T22:29:09.505Z,4.05
2023-01-30T22:31:55.288Z,4.18
2023-01-30T22:34:41.012Z,4.38
2023-01-30T22:37:26.301Z,3.35
2023-01-30T22:40:14.180Z,3.53
2023-01-30T22:42:59.567Z,4.93
2023-01-30T22:45:44.843Z,4.03
2023-01-30T22:48:31.142Z,4.15
2023-01-30T22:51:19.558Z,3.75
2023-01-30T22:54:15.420Z,3.25
2023-01-30T22:57:00.641Z,3.85
2023-01-30T22:59:46.243Z,3.85
2023-01-30T23:02:31.397Z,3.63
2023-01-30T23:05:17.455Z,4.22
2023-01-30T23:08:03.157Z,3.55
2023-01-30T23:10:48.618Z,4.43
2023-01-30T23:13:34.891Z,4.32
2023-01-30T23:16:23.595Z,3.95
2023-01-30T23:19:11.426Z,4.43
2023-01-30T23:21:56.522Z,4.40
2023-01-30T23:24:41.916Z,4.57
2023-01-30T23:27:27.691Z,3.88
2023-01-30T23:30:13.232Z,3.78
2023-01-30T23:32:58.591Z,4.20
2023-01-30T23:35:46.362Z,4.30
2023-01-30T23:38:32.364Z,4.05
2023-01-30T23:41:21.239Z,4.20
2023-01-30T23:44:06.955Z,4.43
2023-01-30T23:46:52.477Z,4.00
2023-01-30T23:49:38.044Z,4.03
2023-01-30T23:52:23.095Z,3.50
2023-01-30T23:55:08.863Z,3.63
2023-01-30T23:57:54.401Z,3.42
